Time;durP1;ratioP1;P1;durP2;ratioP2;P2;SDS_P1;SDS_P2;PMS_P1;PMS_P2;Temp;Humidity;BMP_temperature;BMP_pressure;BME280_temperature;BME280_humidity;BME280_pressure;Samples;Min_cycle;Max_cycle;Signal;HPM_P1;HPM_P2
2023/04/01 00:01:56;;;;;;;4.22;3.83;;;1.10;99.90;;;;;;5007449;28;20046;-74
2023/04/01 00:04:24;;;;;;;3.85;3.42;;;1.10;99.90;;;;;;5011475;28;20049;-74
2023/04/01 00:06:52;;;;;;;5.80;4.07;;;1.10;99.90;;;;;;5010036;28;20067;-74
2023/04/01 00:09:20;;;;;;;4.30;3.90;;;1.10;99.90;;;;;;5003428;28;20103;-75
2023/04/01 00:11:47;;;;;;;4.05;3.65;;;1.10;99.90;;;;;;4999429;28;20050;-74
2023/04/01 00:14:15;;;;;;;6.38;4.20;;;1.10;99.90;;;;;;5007356;28;20050;-73
2023/04/01 00:16:43;;;;;;;3.80;3.50;;;1.10;99.90;;;;;;5010602;28;21511;-74
2023/04/01 00:19:11;;;;;;;5.85;4.22;;;1.10;99.90;;;;;;5005594;28;20056;-73
2023/04/01 00:21:38;;;;;;;5.25;3.97;;;1.10;99.90;;;;;;5006608;28;20061;-73
2023/04/01 00:24:06;;;;;;;4.38;3.97;;;1.10;99.90;;;;;;4991147;28;20053;-74
2023/04/01 00:26:34;;;;;;;226.75;127.53;;;1.00;99.90;;;;;;4994122;28;20060;-73
2023/04/01 00:29:01;;;;;;;139.43;90.50;;;1.10;99.90;;;;;;5008688;28;20392;-74
2023/04/01 00:31:29;;;;;;;4.30;3.85;;;1.10;99.90;;;;;;4992973;28;20145;-73
2023/04/01 00:33:58;;;;;;;8.15;4.28;;;1.10;99.90;;;;;;5004602;28;20050;-73
2023/04/01 00:36:26;;;;;;;4.10;3.70;;;1.10;99.90;;;;;;4989733;28;20496;-74
2023/04/01 00:38:54;;;;;;;4.45;3.75;;;1.10;99.90;;;;;;4990619;28;20050;-73
2023/04/01 00:41:22;;;;;;;4.10;3.55;;;1.10;99.90;;;;;;5007338;28;20481;-75
2023/04/01 00:43:52;;;;;;;4.70;3.83;;;1.10;99.90;;;;;;5024070;28;20328;-73
2023/04/01 00:46:20;;;;;;;4.20;3.88;;;1.10;99.90;;;;;;4988190;28;20450;-74
2023/04/01 00:48:52;;;;;;;4.38;3.97;;;1.10;99.90;;;;;;4992773;28;20519;-73
2023/04/01 00:51:26;;;;;;;5.03;4.10;;;1.00;99.90;;;;;;4993982;28;20078;-73
2023/04/01 00:53:56;;;;;;;4.18;3.78;;;1.00;99.90;;;;;;5018116;28;20053;-74
2023/04/01 00:56:28;;;;;;;4.93;4.07;;;1.10;99.90;;;;;;4990839;28;20527;-73
2023/04/01 00:59:01;;;;;;;4.07;3.67;;;1.10;99.90;;;;;;4994764;28;20057;-74
2023/04/01 01:01:31;;;;;;;4.22;3.55;;;1.00;99.90;;;;;;5003024;28;20132;-74
2023/04/01 01:03:59;;;;;;;4.82;4.25;;;1.00;99.90;;;;;;5007864;28;20549;-73
2023/04/01 01:06:46;;;;;;;3.88;3.58;;;1.00;99.90;;;;;;5010331;28;20458;-73
2023/04/01 01:09:34;;;;;;;4.28;3.85;;;1.00;99.90;;;;;;4998324;28;20042;-73
2023/04/01 01:12:09;;;;;;;6.25;4.60;;;1.00;99.90;;;;;;4998013;28;20521;-73
2023/04/01 01:14:50;;;;;;;4.25;3.78;;;1.00;99.90;;;;;;5008710;28;20076;-74
2023/04/01 01:17:30;;;;;;;6.03;4.75;;;1.10;99.90;;;;;;4995254;28;20108;-73
2023/04/01 01:20:32;;;;;;;6.13;4.18;;;1.00;99.90;;;;;;5011029;28;20136;-74
2023/04/01 01:23:43;;;;;;;8.17;4.53;;;1.00;99.90;;;;;;5008996;28;20141;-74
2023/04/01 01:26:46;;;;;;;4.50;4.07;;;1.00;99.90;;;;;;5008478;28;20064;-74
2023/04/01 01:29:43;;;;;;;4.50;4.10;;;1.00;99.90;;;;;;5001437;28;20050;-73
2023/04/01 01:32:25;;;;;;;3.92;3.53;;;0.90;99.90;;;;;;5002481;28;20065;-75
2023/04/01 01:35:07;;;;;;;5.35;4.47;;;0.90;99.90;;;;;;4993759;28;20518;-75
2023/04/01 01:37:35;;;;;;;4.20;3.77;;;0.90;99.90;;;;;;5006733;28;20371;-76
2023/04/01 01:40:07;;;;;;;4.25;3.85;;;1.00;99.90;;;;;;5003181;28;20046;-78
2023/04/01 01:42:41;;;;;;;4.97;4.38;;;1.00;99.90;;;;;;5016667;28;20513;-76
2023/04/01 01:45:11;;;;;;;9.90;4.38;;;0.90;99.90;;;;;;4995974;28;20608;-78
2023/04/01 01:47:39;;;;;;;4.28;3.88;;;0.90;99.90;;;;;;4996115;28;20129;-74
2023/04/01 01:50:10;;;;;;;5.68;4.25;;;0.90;99.90;;;;;;4992703;28;20416;-75
2023/04/01 01:52:38;;;;;;;4.80;3.72;;;0.90;99.90;;;;;;4992211;28;20054;-75
2023/04/01 01:55:27;;;;;;;6.00;5.10;;;1.00;99.90;;;;;;5002392;28;21771;-74
2023/04/01 01:58:00;;;;;;;4.72;4.22;;;0.90;99.90;;;;;;5020490;28;20078;-75
2023/04/01 02:00:28;;;;;;;4.40;4.00;;;0.90;99.90;;;;;;5011540;28;20054;-76
2023/04/01 02:02:57;;;;;;;4.63;4.22;;;0.90;99.90;;;;;;4993968;28;20099;-75
2023/04/01 02:05:30;;;;;;;4.97;4.47;;;0.90;99.90;;;;;;4991996;28;20054;-75
2023/04/01 02:08:11;;;;;;;4.97;4.25;;;0.90;99.90;;;;;;5007603;28;20050;-75
2023/04/01 02:10:43;;;;;;;4.47;4.07;;;0.90;99.90;;;;;;4990220;28;20050;-75
2023/04/01 02:13:20;;;;;;;8.63;4.53;;;0.90;99.90;;;;;;5007250;28;20195;-75
2023/04/01 02:15:50;;;;;;;4.70;4.00;;;0.90;99.90;;;;;;5006416;28;20056;-74
2023/04/01 02:18:20;;;;;;;4.47;4.07;;;0.90;99.90;;;;;;5011177;28;20434;-74
2023/04/01 02:20:50;;;;;;;4.90;4.10;;;0.90;99.90;;;;;;5019153;28;20043;-74
2023/04/01 02:23:18;;;;;;;5.18;4.68;;;0.90;99.90;;;;;;4986383;28;20422;-73
2023/04/01 02:25:48;;;;;;;5.57;4.50;;;0.90;99.90;;;;;;4976224;28;20510;-74
2023/04/01 02:28:19;;;;;;;5.07;4.40;;;0.90;99.90;;;;;;5006683;28;20526;-73
2023/04/01 02:30:50;;;;;;;4.43;4.00;;;0.90;99.90;;;;;;5005172;28;20153;-75
2023/04/01 02:33:20;;;;;;;4.88;4.38;;;0.90;99.90;;;;;;4999532;28;20069;-74
2023/04/01 02:35:49;;;;;;;5.53;4.18;;;0.80;99.90;;;;;;5015055;28;20470;-74
2023/04/01 02:38:16;;;;;;;4.57;4.05;;;0.90;99.90;;;;;;4993113;28;20050;-74
2023/04/01 02:40:48;;;;;;;4.82;4.00;;;0.90;99.90;;;;;;4985870;28;20441;-74
2023/04/01 02:43:16;;;;;;;5.78;4.45;;;0.90;99.90;;;;;;5005502;28;20111;-75
2023/04/01 02:45:43;;;;;;;5.20;3.97;;;0.90;99.90;;;;;;5010495;28;20144;-75
2023/04/01 02:48:12;;;;;;;7.20;4.15;;;0.80;99.90;;;;;;5003963;28;20633;-75
2023/04/01 02:50:40;;;;;;;4.93;4.28;;;0.90;99.90;;;;;;4994301;28;20042;-76
2023/04/01 02:53:09;;;;;;;4.97;3.88;;;0.80;99.90;;;;;;5001421;28;20089;-75
2023/04/01 02:55:39;;;;;;;4.82;3.70;;;0.90;99.90;;;;;;4993294;28;20419;-73
2023/04/01 02:58:06;;;;;;;4.25;3.85;;;0.90;99.90;;;;;;5007352;28;20104;-73
2023/04/01 03:00:34;;;;;;;4.43;4.03;;;0.90;99.90;;;;;;4977240;28;20491;-73
2023/04/01 03:03:02;;;;;;;5.25;4.13;;;0.80;99.90;;;;;;5006613;28;20141;-73
2023/04/01 03:05:30;;;;;;;5.38;3.92;;;0.90;99.90;;;;;;5000910;28;20061;-73
2023/04/01 03:07:57;;;;;;;5.10;4.53;;;0.90;99.90;;;;;;4990298;28;20065;-73
2023/04/01 03:10:26;;;;;;;4.18;3.78;;;0.80;99.90;;;;;;5005720;28;20140;-74
2023/04/01 03:12:54;;;;;;;4.95;4.20;;;0.90;99.90;;;;;;5005752;28;21166;-74
2023/04/01 03:15:21;;;;;;;5.15;3.97;;;0.90;99.90;;;;;;5011075;28;20136;-73
2023/04/01 03:17:49;;;;;;;4.32;3.70;;;0.90;99.90;;;;;;5009715;28;20049;-74
2023/04/01 03:20:17;;;;;;;4.22;3.75;;;0.90;99.90;;;;;;4989904;28;20038;-73
2023/04/01 03:22:45;;;;;;;3.65;3.35;;;0.90;99.90;;;;;;4995150;28;20058;-72
2023/04/01 03:25:13;;;;;;;5.35;4.20;;;0.90;99.90;;;;;;5009374;28;20042;-74
2023/04/01 03:27:42;;;;;;;6.85;4.25;;;0.90;99.90;;;;;;5019651;28;20418;-74
2023/04/01 03:30:11;;;;;;;4.13;3.75;;;0.90;99.90;;;;;;5015284;28;20043;-74
2023/04/01 03:32:47;;;;;;;11.27;4.13;;;0.90;99.90;;;;;;5001442;28;20525;-75
2023/04/01 03:35:15;;;;;;;4.28;3.63;;;0.90;99.90;;;;;;5001328;28;20053;-73
2023/04/01 03:37:42;;;;;;;3.67;3.38;;;0.90;99.90;;;;;;5008504;28;20422;-74
2023/04/01 03:40:12;;;;;;;3.90;3.60;;;0.90;99.90;;;;;;5010107;28;20050;-74
2023/04/01 03:42:41;;;;;;;5.97;4.07;;;0.90;99.90;;;;;;4992353;28;20510;-73
2023/04/01 03:45:12;;;;;;;7.20;4.00;;;0.90;99.90;;;;;;5007532;28;20080;-74
2023/04/01 03:47:42;;;;;;;6.28;3.83;;;0.90;99.90;;;;;;4999595;28;20455;-74
2023/04/01 03:50:11;;;;;;;3.47;3.17;;;0.90;99.90;;;;;;4996222;28;20081;-75
2023/04/01 03:52:38;;;;;;;5.32;3.47;;;0.90;99.90;;;;;;5015357;28;20549;-74
2023/04/01 03:55:07;;;;;;;4.57;3.83;;;0.90;99.90;;;;;;4998390;28;20060;-74
2023/04/01 03:57:35;;;;;;;4.43;3.92;;;0.90;99.90;;;;;;5006887;28;20041;-74
2023/04/01 04:00:15;;;;;;;4.25;3.40;;;0.90;99.90;;;;;;4989487;28;20379;-75
2023/04/01 04:02:45;;;;;;;3.70;3.40;;;0.90;99.90;;;;;;4995158;28;20049;-76
2023/04/01 04:05:18;;;;;;;3.58;3.28;;;0.90;99.90;;;;;;4989798;28;20060;-75
2023/04/01 04:07:46;;;;;;;6.63;4.13;;;1.00;99.90;;;;;;4995058;28;20507;-75
2023/04/01 04:10:13;;;;;;;4.47;3.10;;;1.00;99.90;;;;;;4991488;28;20077;-76
2023/04/01 04:12:41;;;;;;;4.35;3.95;;;1.00;99.90;;;;;;5006361;28;20116;-76
2023/04/01 04:15:10;;;;;;;5.28;3.67;;;1.10;99.90;;;;;;5007049;28;20054;-76
2023/04/01 04:17:39;;;;;;;3.60;3.30;;;1.10;99.90;;;;;;5008521;28;20057;-76
2023/04/01 04:20:09;;;;;;;4.47;3.38;;;1.10;99.90;;;;;;4984909;28;20467;-76
2023/04/01 04:22:38;;;;;;;4.22;3.53;;;1.10;99.90;;;;;;5006581;28;20426;-74
2023/04/01 04:25:09;;;;;;;5.13;3.10;;;1.10;99.90;;;;;;4989871;28;20108;-73
2023/04/01 04:27:37;;;;;;;4.68;3.15;;;1.10;99.90;;;;;;4975468;28;20419;-73
2023/04/01 04:30:11;;;;;;;4.63;3.30;;;1.10;99.90;;;;;;5005673;28;20085;-73
2023/04/01 04:32:41;;;;;;;3.70;3.10;;;1.10;99.90;;;;;;5009399;28;20356;-72
2023/04/01 04:35:09;;;;;;;3.85;3.33;;;1.10;99.90;;;;;;5000382;28;20100;-73
2023/04/01 04:37:37;;;;;;;3.75;3.13;;;1.20;99.90;;;;;;5004001;28;20392;-73
2023/04/01 04:40:06;;;;;;;2.75;2.50;;;1.20;99.90;;;;;;4994330;28;20057;-73
2023/04/01 04:42:33;;;;;;;6.22;2.72;;;1.20;99.90;;;;;;4995222;28;20134;-75
2023/04/01 04:45:08;;;;;;;3.47;3.17;;;1.30;99.90;;;;;;4990977;28;20097;-75
2023/04/01 04:47:36;;;;;;;3.55;2.42;;;1.30;99.90;;;;;;4999819;28;20050;-75
2023/04/01 04:50:07;;;;;;;4.80;2.97;;;1.30;99.90;;;;;;5004049;28;20073;-74
2023/04/01 04:52:35;;;;;;;4.45;2.83;;;1.40;99.90;;;;;;4989758;28;20114;-75
2023/04/01 04:55:02;;;;;;;4.53;2.45;;;1.40;99.90;;;;;;5003471;28;20046;-74
2023/04/01 04:57:30;;;;;;;5.63;3.10;;;1.50;99.90;;;;;;4996021;28;20039;-73
2023/04/01 04:59:58;;;;;;;3.35;2.50;;;1.50;99.90;;;;;;5012196;28;20133;-73
2023/04/01 05:02:45;;;;;;;2.70;2.33;;;1.50;99.90;;;;;;5008784;28;20060;-73
2023/04/01 05:05:13;;;;;;;3.33;2.70;;;1.60;99.90;;;;;;5007340;28;20062;-73
2023/04/01 05:07:41;;;;;;;3.22;2.92;;;1.70;99.90;;;;;;5023803;28;20056;-75
2023/04/01 05:10:10;;;;;;;4.03;2.83;;;1.70;99.90;;;;;;4993210;28;20389;-73
2023/04/01 05:12:38;;;;;;;3.28;2.60;;;1.70;99.90;;;;;;4976437;28;20507;-73
2023/04/01 05:15:09;;;;;;;2.67;2.47;;;1.70;99.90;;;;;;5001981;28;20061;-72
2023/04/01 05:17:37;;;;;;;4.65;2.72;;;1.70;99.90;;;;;;4989655;28;20104;-73
2023/04/01 05:20:07;;;;;;;2.97;2.45;;;1.70;99.90;;;;;;5015690;28;20507;-74
2023/04/01 05:22:36;;;;;;;5.13;2.90;;;1.70;99.90;;;;;;5014212;28;20046;-73
2023/04/01 05:25:04;;;;;;;3.47;3.17;;;1.70;99.90;;;;;;4996426;28;20050;-74
2023/04/01 05:27:32;;;;;;;3.33;3.03;;;1.70;99.90;;;;;;5005790;28;20053;-73
2023/04/01 05:29:59;;;;;;;3.63;3.15;;;1.70;99.90;;;;;;4997345;28;20046;-73
2023/04/01 05:32:42;;;;;;;;;;;1.70;99.90;;;;;;5015782;28;20081;-73
2023/04/01 05:35:10;;;;;;;2.70;2.50;;;1.70;99.90;;;;;;4992774;28;19929;-72
2023/04/01 05:37:39;;;;;;;3.25;2.95;;;1.70;99.90;;;;;;5002240;28;20506;-74
2023/04/01 05:40:10;;;;;;;3.20;2.90;;;1.70;99.90;;;;;;4993164;28;20077;-73
2023/04/01 05:42:38;;;;;;;10.82;7.05;;;1.80;99.90;;;;;;4981583;28;20046;-73
2023/04/01 05:45:07;;;;;;;3.63;3.25;;;1.80;99.90;;;;;;5006639;28;20066;-73
2023/04/01 05:47:53;;;;;;;3.67;3.13;;;2.00;99.90;;;;;;4993728;28;20141;-73
2023/04/01 05:50:20;;;;;;;8.25;3.30;;;2.10;99.90;;;;;;5001902;28;20128;-74
2023/04/01 05:52:49;;;;;;;3.28;2.97;;;2.10;99.90;;;;;;4991388;28;20497;-73
2023/04/01 05:55:18;;;;;;;5.82;3.40;;;2.20;99.90;;;;;;4989859;28;20048;-73
2023/04/01 05:57:48;;;;;;;4.75;3.50;;;2.20;99.90;;;;;;5005858;28;20062;-73
2023/04/01 06:00:17;;;;;;;3.03;2.70;;;2.30;99.90;;;;;;5018659;28;20049;-73
2023/04/01 06:02:51;;;;;;;5.15;3.90;;;2.20;99.90;;;;;;5003266;28;20058;-73
2023/04/01 06:05:22;;;;;;;7.45;2.90;;;2.20;99.90;;;;;;5023259;28;20046;-75
2023/04/01 06:07:56;;;;;;;3.40;2.65;;;2.30;99.90;;;;;;4999937;28;20049;-74
2023/04/01 06:10:37;;;;;;;4.95;3.55;;;2.30;99.90;;;;;;5009809;28;20053;-76
2023/04/01 06:13:11;;;;;;;3.10;2.75;;;2.20;99.90;;;;;;5001376;28;20132;-73
2023/04/01 06:15:46;;;;;;;3.15;2.60;;;2.20;99.90;;;;;;5010794;28;20060;-74
2023/04/01 06:18:45;;;;;;;2.83;2.63;;;2.20;99.90;;;;;;5011747;28;20554;-74
2023/04/01 06:21:42;;;;;;;4.18;2.70;;;2.30;99.90;;;;;;5011041;28;20423;-74
2023/04/01 06:24:36;;;;;;;3.47;2.50;;;2.30;99.90;;;;;;5009808;28;20156;-74
2023/04/01 06:27:17;;;;;;;5.15;2.55;;;2.20;99.90;;;;;;5007517;28;20054;-74
2023/04/01 06:30:25;;;;;;;2.80;2.60;;;2.20;99.90;;;;;;5004130;28;20050;-75
2023/04/01 06:33:12;;;;;;;3.70;3.30;;;2.30;99.90;;;;;;5002971;28;20529;-76
2023/04/01 06:36:15;;;;;;;3.67;2.75;;;2.40;99.90;;;;;;5012469;28;20073;-75
2023/04/01 06:39:26;;;;;;;3.30;3.10;;;2.50;99.90;;;;;;4992442;28;20546;-75
2023/04/01 06:42:26;;;;;;;6.38;2.78;;;2.70;99.90;;;;;;5007382;28;20300;-75
2023/04/01 06:45:11;;;;;;;2.65;2.45;;;2.90;99.90;;;;;;5008975;28;20123;-74
2023/04/01 06:48:29;;;;;;;3.53;3.23;;;2.90;99.90;;;;;;5006159;28;20042;-75
2023/04/01 06:51:28;;;;;;;3.17;2.55;;;3.10;99.90;;;;;;4993451;28;20196;-75
2023/04/01 06:54:21;;;;;;;4.13;3.20;;;3.10;99.90;;;;;;4999612;28;20054;-73
2023/04/01 06:57:25;;;;;;;3.58;3.13;;;3.10;99.90;;;;;;5018746;28;20089;-75
2023/04/01 06:59:58;;;;;;;4.25;2.50;;;3.10;99.90;;;;;;5009586;28;20477;-74
2023/04/01 07:02:39;;;;;;;4.43;2.72;;;3.10;99.90;;;;;;5008035;28;20431;-74
2023/04/01 07:05:13;;;;;;;4.53;2.85;;;3.00;99.90;;;;;;5007734;28;20042;-73
2023/04/01 07:07:46;;;;;;;3.33;2.85;;;2.90;99.90;;;;;;5006177;28;20046;-75
2023/04/01 07:10:18;;;;;;;;;;;2.80;99.90;;;;;;4989919;28;20180;-76
2023/04/01 07:13:12;;;;;;;2.90;2.67;;;2.70;99.90;;;;;;5006411;28;20068;-75
2023/04/01 07:16:12;;;;;;;4.78;3.20;;;2.80;99.90;;;;;;5005852;28;20131;-76
2023/04/01 07:18:49;;;;;;;5.13;3.25;;;2.80;99.90;;;;;;5022499;28;20050;-76
2023/04/01 07:21:27;;;;;;;5.45;2.50;;;2.80;99.90;;;;;;5008658;28;20038;-74
2023/04/01 07:24:04;;;;;;;4.82;3.35;;;2.80;99.90;;;;;;5010445;28;20050;-75
2023/04/01 07:26:36;;;;;;;3.58;2.80;;;2.80;99.90;;;;;;5027132;28;20046;-77
2023/04/01 07:29:15;;;;;;;4.60;2.92;;;2.80;99.90;;;;;;5011310;28;20048;-77
2023/04/01 07:32:15;;;;;;;3.75;2.50;;;2.80;99.90;;;;;;5000360;28;20074;-77
2023/04/01 07:35:06;;;;;;;3.22;2.92;;;2.80;99.90;;;;;;5010224;28;20124;-78
2023/04/01 07:37:47;;;;;;;2.65;2.45;;;2.90;99.90;;;;;;5007123;28;20056;-76
2023/04/01 07:40:26;;;;;;;3.45;3.03;;;3.00;99.90;;;;;;5001089;28;20338;-77
2023/04/01 07:43:33;;;;;;;4.00;3.30;;;3.00;99.90;;;;;;4981845;28;20045;-76
2023/04/01 07:46:39;;;;;;;2.58;2.38;;;3.10;99.90;;;;;;4990575;28;20050;-73
2023/04/01 07:49:14;;;;;;;2.80;2.60;;;3.10;99.90;;;;;;5003227;28;20057;-75
2023/04/01 07:51:51;;;;;;;5.03;3.30;;;3.10;99.90;;;;;;5018182;28;20054;-75
2023/04/01 07:54:25;;;;;;;2.80;2.60;;;3.20;99.90;;;;;;5004506;28;20054;-77
2023/04/01 07:57:05;;;;;;;2.80;2.47;;;3.20;99.90;;;;;;4999991;28;20526;-76
2023/04/01 07:59:58;;;;;;;3.30;2.92;;;3.20;99.90;;;;;;5021017;28;20054;-75
2023/04/01 08:03:03;;;;;;;4.15;2.42;;;3.10;99.90;;;;;;5004253;28;20042;-76
2023/04/01 08:05:42;;;;;;;2.42;2.22;;;3.10;99.90;;;;;;5002231;28;20116;-74
2023/04/01 08:08:19;;;;;;;2.80;2.55;;;3.10;99.90;;;;;;5000047;28;20105;-78
2023/04/01 08:11:20;;;;;;;2.75;2.55;;;3.10;99.90;;;;;;4993377;28;20050;-80
2023/04/01 08:14:17;;;;;;;3.28;2.60;;;3.10;99.90;;;;;;4991104;28;20046;-80
2023/04/01 08:17:17;;;;;;;5.30;3.13;;;3.00;99.90;;;;;;5002423;28;20132;-80
2023/04/01 08:20:09;;;;;;;2.83;2.63;;;2.90;99.90;;;;;;5021200;28;20061;-79
2023/04/01 08:22:43;;;;;;;3.03;2.67;;;3.00;99.90;;;;;;5005592;28;20542;-78
2023/04/01 08:25:24;;;;;;;3.22;2.55;;;3.00;99.90;;;;;;5011405;28;20065;-77
2023/04/01 08:28:02;;;;;;;3.03;2.72;;;3.10;99.90;;;;;;4987759;28;20053;-78
2023/04/01 08:30:42;;;;;;;3.15;2.60;;;3.10;99.90;;;;;;5005440;28;20554;-75
2023/04/01 08:33:18;;;;;;;3.00;2.70;;;3.20;99.90;;;;;;5009407;28;20050;-75
2023/04/01 08:35:54;;;;;;;2.90;2.60;;;3.30;99.90;;;;;;4994076;28;20057;-75
2023/04/01 08:38:29;;;;;;;3.40;2.33;;;3.30;99.90;;;;;;4996688;28;20045;-77
2023/04/01 08:41:08;;;;;;;3.67;2.60;;;3.40;99.90;;;;;;5005492;28;20975;-73
2023/04/01 08:44:32;;;;;;;4.38;3.97;;;3.50;99.90;;;;;;5005690;28;20444;-75
2023/04/01 08:47:39;;;;;;;2.80;2.55;;;3.60;99.90;;;;;;4996906;28;20050;-74
2023/04/01 08:50:52;;;;;;;4.40;2.53;;;3.60;99.90;;;;;;4957721;28;20530;-75
2023/04/01 08:54:03;;;;;;;2.88;2.58;;;3.70;99.90;;;;;;4994985;28;20054;-73
2023/04/01 08:56:38;;;;;;;5.40;2.72;;;3.70;99.90;;;;;;4989448;28;20137;-74
2023/04/01 08:59:35;;;;;;;4.00;2.60;;;3.70;99.90;;;;;;5020586;28;20058;-74
2023/04/01 09:02:57;;;;;;;5.75;2.67;;;3.80;99.90;;;;;;4984171;28;20380;-75
2023/04/01 09:05:41;;;;;;;2.38;2.22;;;3.80;99.90;;;;;;5023945;28;20076;-75
2023/04/01 09:08:33;;;;;;;3.30;2.88;;;4.00;99.90;;;;;;5008761;28;20143;-74
2023/04/01 09:11:09;;;;;;;4.13;2.90;;;4.10;99.90;;;;;;4999596;28;20042;-74
2023/04/01 09:14:36;;;;;;;2.50;2.08;;;4.10;99.90;;;;;;5010782;28;20129;-74
2023/04/01 09:17:50;;;;;;;3.67;2.67;;;4.20;99.90;;;;;;4982712;28;20478;-74
2023/04/01 09:20:59;;;;;;;4.80;2.10;;;4.10;99.90;;;;;;4987834;28;20058;-74
2023/04/01 09:24:05;;;;;;;4.97;2.70;;;4.20;99.90;;;;;;5002164;28;20050;-75
2023/04/01 09:27:04;;;;;;;2.80;2.20;;;4.20;99.90;;;;;;5005430;28;20471;-74
2023/04/01 09:30:17;;;;;;;2.67;2.47;;;4.20;99.90;;;;;;5004080;28;20077;-74
2023/04/01 09:33:31;;;;;;;2.45;2.20;;;4.20;99.90;;;;;;5024010;28;20125;-75
2023/04/01 09:36:05;;;;;;;;;;;4.10;99.90;;;;;;5013906;28;20418;-75
2023/04/01 09:38:50;;;;;;;2.20;2.00;;;4.10;99.90;;;;;;5013402;28;19925;-76
2023/04/01 09:41:30;;;;;;;2.95;2.10;;;4.00;99.90;;;;;;5009797;28;20477;-79
2023/04/01 09:44:19;;;;;;;4.70;2.50;;;3.90;99.90;;;;;;5007173;28;20064;-76
2023/04/01 09:47:23;;;;;;;3.97;2.53;;;3.80;99.90;;;;;;5024769;28;20050;-77
2023/04/01 09:50:37;;;;;;;2.67;2.40;;;3.90;99.90;;;;;;5002051;28;20144;-76
2023/04/01 09:53:25;;;;;;;2.45;2.22;;;4.00;99.90;;;;;;5000110;28;20064;-76
2023/04/01 09:56:46;;;;;;;4.38;2.42;;;4.00;99.90;;;;;;5008088;28;20046;-78
2023/04/01 09:59:37;;;;;;;3.00;2.50;;;4.20;99.90;;;;;;5016800;28;20137;-77
2023/04/01 10:03:08;;;;;;;3.40;2.55;;;4.30;99.90;;;;;;5008415;28;20050;-72
2023/04/01 10:06:35;;;;;;;2.38;2.17;;;4.30;99.90;;;;;;5010215;28;20553;-73
2023/04/01 10:10:11;;;;;;;3.50;2.25;;;4.10;99.90;;;;;;5006283;28;20050;-73
2023/04/01 10:13:17;;;;;;;3.05;2.75;;;4.20;99.90;;;;;;4957511;28;20065;-77
2023/04/01 10:16:26;;;;;;;4.10;2.55;;;4.20;99.90;;;;;;5007296;28;20085;-82
2023/04/01 10:20:02;;;;;;;27.73;4.50;;;4.30;99.90;;;;;;5000323;28;20081;-77
2023/04/01 10:23:00;;;;;;;5.35;2.85;;;4.30;99.90;;;;;;4990638;28;20057;-81
2023/04/01 10:26:19;;;;;;;3.80;3.10;;;4.50;99.90;;;;;;5014154;28;20054;-80
2023/04/01 10:29:50;;;;;;;5.03;3.25;;;4.60;99.90;;;;;;4995970;28;20060;-82
2023/04/01 10:33:17;;;;;;;5.43;3.03;;;4.70;99.90;;;;;;4896822;29;20417;-80
2023/04/01 10:36:42;;;;;;;6.22;3.25;;;4.80;99.90;;;;;;4991749;28;20492;-79
2023/04/01 10:39:35;;;;;;;3.15;2.85;;;4.90;99.90;;;;;;4992912;28;20104;-75
2023/04/01 10:43:05;;;;;;;3.17;2.88;;;5.00;99.90;;;;;;5003272;28;20058;-73
2023/04/01 10:46:37;;;;;;;4.28;3.28;;;4.90;99.90;;;;;;5010413;28;20077;-79
2023/04/01 10:49:45;;;;;;;4.25;3.10;;;4.70;99.90;;;;;;4975191;28;20054;-83
2023/04/01 10:53:12;;;;;;;8.18;3.20;;;4.70;99.90;;;;;;5022108;28;20410;-75
2023/04/01 10:56:34;;;;;;;3.65;3.13;;;4.70;99.90;;;;;;5006851;28;20048;-74
2023/04/01 11:00:17;;;;;;;3.28;2.97;;;4.60;99.90;;;;;;5009567;28;20049;-80
2023/04/01 11:03:47;;;;;;;3.65;3.22;;;4.60;99.90;;;;;;5009239;28;20089;-79
2023/04/01 11:10:23;;;;;;;3.33;3.00;;;4.60;99.90;;;;;;5098155;27;20979;-75
2023/04/01 11:13:40;;;;;;;2.50;2.30;;;4.70;99.90;;;;;;5067272;28;20044;-75
2023/04/01 11:17:04;;;;;;;3.65;3.30;;;4.90;99.90;;;;;;5079721;28;20094;-78
2023/04/01 11:20:08;;;;;;;3.90;2.63;;;4.90;99.90;;;;;;5087175;28;20048;-80
2023/04/01 11:23:27;;;;;;;3.17;2.88;;;4.90;99.90;;;;;;5084948;28;20117;-75
2023/04/01 11:26:15;;;;;;;3.17;2.70;;;4.90;99.90;;;;;;5061227;28;20045;-76
2023/04/01 11:29:40;;;;;;;3.40;3.10;;;4.90;99.90;;;;;;5066126;28;20045;-74
2023/04/01 11:32:40;;;;;;;2.88;2.35;;;4.70;99.90;;;;;;5068090;28;20075;-74
2023/04/01 11:35:38;;;;;;;3.90;2.67;;;4.60;99.90;;;;;;5049368;28;20048;-81
2023/04/01 11:38:28;;;;;;;5.70;2.85;;;4.50;99.90;;;;;;5059285;28;20586;-75
2023/04/01 11:41:16;;;;;;;3.20;2.90;;;4.50;99.90;;;;;;5084090;28;20067;-74
2023/04/01 11:44:19;;;;;;;3.38;2.75;;;4.50;99.90;;;;;;5086463;28;20043;-74
2023/04/01 11:47:33;;;;;;;4.50;2.95;;;4.40;99.90;;;;;;5046687;28;20074;-81
2023/04/01 11:50:18;;;;;;;2.70;2.50;;;4.30;99.90;;;;;;5093230;28;20094;-81
2023/04/01 11:53:27;;;;;;;3.83;2.78;;;4.30;99.90;;;;;;5056734;28;20044;-82
2023/04/01 11:56:10;;;;;;;4.30;3.30;;;4.30;99.90;;;;;;5061657;28;20818;-82
2023/04/01 11:59:28;;;;;;;4.38;3.10;;;4.30;99.90;;;;;;5084003;28;20713;-82
2023/04/01 12:02:04;;;;;;;4.32;2.60;;;4.20;99.90;;;;;;5084087;28;20058;-82
2023/04/01 12:05:17;;;;;;;4.03;3.40;;;4.10;99.90;;;;;;5052219;28;20048;-79
2023/04/01 12:08:16;;;;;;;5.50;2.65;;;4.10;99.90;;;;;;5072133;28;20045;-85
2023/04/01 12:10:55;;;;;;;7.18;2.83;;;4.00;99.90;;;;;;5070579;28;20106;-82
2023/04/01 12:13:37;;;;;;;4.60;3.63;;;4.00;99.90;;;;;;5081193;28;20082;-83
2023/04/01 12:16:46;;;;;;;3.95;3.63;;;3.90;99.90;;;;;;5070521;28;20055;-81
2023/04/01 12:19:25;;;;;;;3.13;2.85;;;3.90;99.90;;;;;;5069518;28;20148;-81
2023/04/01 12:22:25;;;;;;;3.97;3.53;;;3.90;99.90;;;;;;5059940;28;20045;-77
2023/04/01 12:25:06;;;;;;;8.25;3.47;;;4.00;99.90;;;;;;5061612;28;20064;-77
2023/04/01 12:27:44;;;;;;;3.25;2.70;;;4.10;99.90;;;;;;5067592;28;20663;-77
2023/04/01 12:30:55;;;;;;;4.97;3.55;;;4.10;99.90;;;;;;5055956;28;20413;-78
2023/04/01 12:34:22;;;;;;;4.90;3.53;;;4.20;99.90;;;;;;5033794;28;20071;-77
2023/04/01 12:37:04;;;;;;;6.88;4.13;;;4.20;99.90;;;;;;5001688;28;20132;-82
2023/04/01 12:40:00;;;;;;;4.82;3.55;;;4.20;99.90;;;;;;5044800;28;20052;-82
2023/04/01 12:42:52;;;;;;;5.75;3.53;;;4.10;99.90;;;;;;5046097;28;20048;-79
2023/04/01 12:45:32;;;;;;;4.67;3.37;;;4.10;99.90;;;;;;5065272;28;20127;-75
2023/04/01 12:48:43;;;;;;;6.57;3.30;;;4.10;99.90;;;;;;5058467;28;20364;-75
2023/04/01 12:51:40;;;;;;;5.07;3.00;;;4.10;99.90;;;;;;5056662;28;20056;-76
2023/04/01 12:54:46;;;;;;;4.88;3.30;;;3.90;99.90;;;;;;5064911;28;20055;-78
2023/04/01 12:57:54;;;;;;;5.32;2.58;;;3.90;99.90;;;;;;5067443;28;20516;-78
2023/04/01 13:01:07;;;;;;;3.45;3.15;;;3.90;99.90;;;;;;5050340;28;20485;-76
2023/04/01 13:04:37;;;;;;;4.57;2.60;;;4.00;99.90;;;;;;5029431;28;20071;-77
2023/04/01 13:07:30;;;;;;;3.78;2.53;;;4.00;99.90;;;;;;5032670;28;20064;-79
2023/04/01 13:10:33;;;;;;;3.35;2.33;;;4.00;99.90;;;;;;5059379;28;20040;-78
2023/04/01 13:13:58;;;;;;;4.78;3.22;;;4.10;99.90;;;;;;5058245;28;20076;-79
2023/04/01 13:16:38;;;;;;;3.15;2.85;;;4.10;99.90;;;;;;5025451;28;20068;-78
2023/04/01 13:19:18;;;;;;;4.60;3.05;;;4.20;99.90;;;;;;5020391;28;20084;-76
2023/04/01 13:21:56;;;;;;;2.70;2.50;;;4.40;99.90;;;;;;5045531;28;20062;-80
2023/04/01 13:24:43;;;;;;;3.22;1.92;;;4.60;99.90;;;;;;5062839;28;20118;-83
2023/04/01 13:27:36;;;;;;;2.92;2.10;;;4.80;99.90;;;;;;5052202;28;20114;-75
2023/04/01 13:30:23;;;;;;;3.35;1.90;;;5.00;99.90;;;;;;5059797;28;20420;-78
2023/04/01 13:33:15;;;;;;;2.97;2.15;;;5.30;99.90;;;;;;5057952;28;20385;-80
2023/04/01 13:36:03;;;;;;;;;;;;;;;;;;;;;
2023/04/01 13:39:08;;;;;;;2.33;2.13;;;5.70;99.90;;;;;;5060083;28;20109;-77
2023/04/01 13:42:11;;;;;;;3.30;2.33;;;6.10;99.90;;;;;;5065758;28;20043;-81
2023/04/01 13:44:49;;;;;;;2.90;2.13;;;7.10;99.90;;;;;;5054159;28;20045;-81
2023/04/01 13:47:51;;;;;;;2.85;2.40;;;7.90;99.90;;;;;;5058688;28;20052;-84
2023/04/01 13:50:46;;;;;;;7.35;2.25;;;8.40;99.90;;;;;;5053941;28;20090;-81
2023/04/01 13:54:05;;;;;;;2.30;1.77;;;8.20;99.90;;;;;;5060205;28;20796;-80
2023/04/01 13:56:42;;;;;;;3.75;2.40;;;7.50;99.90;;;;;;5043727;28;20049;-79
2023/04/01 13:59:49;;;;;;;2.35;2.15;;;6.90;99.90;;;;;;5061538;28;20064;-84
2023/04/01 14:02:46;;;;;;;2.60;2.20;;;6.40;99.90;;;;;;5064024;28;20063;-80
2023/04/01 14:05:50;;;;;;;1.83;1.73;;;5.90;99.90;;;;;;5057316;28;20098;-79
2023/04/01 14:08:34;;;;;;;2.60;2.22;;;5.60;99.90;;;;;;5057167;28;20049;-79
2023/04/01 14:11:16;;;;;;;2.67;2.13;;;5.30;99.90;;;;;;5057790;28;20068;-79
2023/04/01 14:14:00;;;;;;;3.72;2.47;;;5.20;99.90;;;;;;5041357;28;20073;-80
2023/04/01 14:17:19;;;;;;;2.72;2.20;;;5.10;99.90;;;;;;5062665;28;20040;-77
2023/04/01 14:20:30;;;;;;;2.50;2.30;;;4.90;99.90;;;;;;5041027;28;20123;-78
2023/04/01 14:23:39;;;;;;;2.58;2.38;;;4.80;99.90;;;;;;5014872;28;20076;-78
2023/04/01 14:27:16;;;;;;;4.43;3.70;;;4.80;99.90;;;;;;5055046;28;20055;-85
2023/04/01 14:30:11;;;;;;;3.25;2.35;;;4.80;99.90;;;;;;5055104;28;20045;-76
2023/04/01 14:32:53;;;;;;;5.47;2.30;;;4.70;99.90;;;;;;5046442;28;20053;-80
2023/04/01 14:35:46;;;;;;;2.75;2.30;;;4.60;99.90;;;;;;5065461;28;20045;-80
2023/04/01 14:38:40;;;;;;;3.47;2.25;;;4.50;99.90;;;;;;5062802;28;20052;-81